createdAt,value
2018-10-01T00:00:13.457Z,52.59
2018-10-01T00:01:13.096Z,52.67
2018-10-01T00:02:13.086Z,52.57
2018-10-01T00:03:13.138Z,52.59
2018-10-01T00:04:13.066Z,52.57
2018-10-01T00:05:13.086Z,52.37
2018-10-01T00:06:13.060Z,52.39
2018-10-01T00:07:13.029Z,52.59
2018-10-01T00:08:13.019Z,52.37
2018-10-01T00:09:13.008Z,52.37
2018-10-01T00:10:13.020Z,52.59
2018-10-01T00:11:12.986Z,52.59
2018-10-01T00:12:13.010Z,52.37
2018-10-01T00:13:12.963Z,52.49
2018-10-01T00:14:12.952Z,52.47
2018-10-01T00:15:12.940Z,52.57
2018-10-01T00:16:12.929Z,52.49
2018-10-01T00:17:12.942Z,52.57
2018-10-01T00:18:12.906Z,52.49
2018-10-01T00:19:12.895Z,52.59
2018-10-01T00:20:12.884Z,52.59
2018-10-01T00:21:12.873Z,52.37
2018-10-01T00:22:12.896Z,52.59
2018-10-01T00:23:12.852Z,52.39
2018-10-01T00:24:12.841Z,52.59
2018-10-01T00:25:12.852Z,52.47
2018-10-01T00:26:12.818Z,52.59
2018-10-01T00:27:12.830Z,52.49
2018-10-01T00:28:12.798Z,52.49
2018-10-01T00:29:12.808Z,52.59
2018-10-01T00:30:12.805Z,52.49
2018-10-01T00:31:12.765Z,52.39
2018-10-01T00:32:12.751Z,52.57
2018-10-01T00:33:12.741Z,52.49
2018-10-01T00:34:12.824Z,52.80
2018-10-01T00:35:12.775Z,52.57
2018-10-01T00:36:12.708Z,52.80
2018-10-01T00:37:12.695Z,52.69
2018-10-01T00:38:12.683Z,52.59
2018-10-01T00:39:12.673Z,52.37
2018-10-01T00:40:12.708Z,52.49
2018-10-01T00:41:12.651Z,52.57
2018-10-01T00:42:12.640Z,52.37
2018-10-01T00:43:12.661Z,52.47
2018-10-01T00:44:12.615Z,52.59
2018-10-01T00:45:12.613Z,52.49
2018-10-01T00:46:12.616Z,52.49
2018-10-01T00:47:12.588Z,52.47
2018-10-01T00:48:12.732Z,52.57
2018-10-01T00:49:12.559Z,52.49
2018-10-01T00:50:12.546Z,52.49
2018-10-01T00:51:12.559Z,52.77
2018-10-01T00:52:12.532Z,52.39
2018-10-01T00:53:12.516Z,52.39
2018-10-01T00:54:12.503Z,52.39
2018-10-01T00:55:12.523Z,52.37
2018-10-01T00:56:12.480Z,52.39
2018-10-01T00:57:12.470Z,52.57
2018-10-01T00:58:12.457Z,52.59
2018-10-01T00:59:12.445Z,52.59
2018-10-01T01:00:12.458Z,52.59
2018-10-01T01:01:12.784Z,52.47
2018-10-01T01:02:12.447Z,52.47
2018-10-01T01:03:12.426Z,52.49
2018-10-01T01:04:12.390Z,52.59
2018-10-01T01:05:12.378Z,52.47
2018-10-01T01:06:12.391Z,52.47
2018-10-01T01:07:12.356Z,52.57
2018-10-01T01:08:12.344Z,52.37
2018-10-01T01:09:12.333Z,52.49
2018-10-01T01:10:12.322Z,52.47
2018-10-01T01:11:12.344Z,52.57
2018-10-01T01:12:12.299Z,52.59
2018-10-01T01:13:12.307Z,52.49
2018-10-01T01:14:12.376Z,52.59
2018-10-01T01:15:12.265Z,52.49
2018-10-01T01:16:12.256Z,52.49
2018-10-01T01:17:12.257Z,52.27
2018-10-01T01:18:12.235Z,52.57
2018-10-01T01:19:12.305Z,52.57
2018-10-01T01:20:12.253Z,52.39
2018-10-01T01:21:12.227Z,52.59
2018-10-01T01:22:12.189Z,52.29
2018-10-01T01:23:12.177Z,52.59
2018-10-01T01:24:12.166Z,52.39
2018-10-01T01:25:12.165Z,52.59
2018-10-01T01:26:12.217Z,52.57
2018-10-01T01:27:12.134Z,52.29
2018-10-01T01:28:12.122Z,52.59
2018-10-01T01:29:12.111Z,52.49
2018-10-01T01:30:12.123Z,52.39
2018-10-01T01:31:12.087Z,52.59
2018-10-01T01:32:12.076Z,52.39
2018-10-01T01:33:12.113Z,52.49
2018-10-01T01:34:12.099Z,53.19
2018-10-01T01:35:12.042Z,52.39
2018-10-01T01:36:12.032Z,52.47
2018-10-01T01:37:12.051Z,53.17
2018-10-01T01:38:12.010Z,52.39
2018-10-01T01:39:12.023Z,52.29
2018-10-01T01:40:11.990Z,52.59
2018-10-01T01:41:12.119Z,53.19
2018-10-01T01:42:11.964Z,52.49
2018-10-01T01:43:11.955Z,53.09
2018-10-01T01:44:11.942Z,52.49
2018-10-01T01:45:12.132Z,52.59
2018-10-01T01:46:11.943Z,52.19
2018-10-01T01:47:11.908Z,53.09
2018-10-01T01:48:11.898Z,52.47
2018-10-01T01:49:11.928Z,52.39
2018-10-01T01:50:11.874Z,52.27
2018-10-01T01:51:11.864Z,52.49
2018-10-01T01:52:11.852Z,52.29
2018-10-01T01:53:11.845Z,52.59
2018-10-01T01:54:11.858Z,52.69
2018-10-01T01:55:11.819Z,53.09
2018-10-01T01:56:11.808Z,52.49
2018-10-01T01:57:11.796Z,52.29
2018-10-01T01:58:11.880Z,52.49
2018-10-01T01:59:11.798Z,52.39
2018-10-01T02:00:11.785Z,52.39
2018-10-01T02:01:11.759Z,52.89
2018-10-01T02:02:11.772Z,52.29
2018-10-01T02:03:11.732Z,52.49
2018-10-01T02:04:11.721Z,52.57
2018-10-01T02:05:11.711Z,52.47
2018-10-01T02:06:11.697Z,52.49
2018-10-01T02:07:11.714Z,52.59
2018-10-01T02:08:11.674Z,53.09
2018-10-01T02:09:11.704Z,52.27
2018-10-01T02:10:11.652Z,52.57
2018-10-01T02:11:11.640Z,52.47
2018-10-01T02:12:11.630Z,52.47
2018-10-01T02:13:11.619Z,52.39
2018-10-01T02:14:11.674Z,52.39
2018-10-01T02:15:11.597Z,52.19
2018-10-01T02:16:11.587Z,52.49
2018-10-01T02:17:11.574Z,52.49
2018-10-01T02:18:11.564Z,52.47
2018-10-01T02:19:11.575Z,52.97
2018-10-01T02:20:11.557Z,53.09
2018-10-01T02:21:11.529Z,52.57
2018-10-01T02:22:11.518Z,52.57
2018-10-01T02:23:11.532Z,52.47
2018-10-01T02:24:11.528Z,52.39
2018-10-01T02:25:11.485Z,52.47
2018-10-01T02:26:11.473Z,52.69
2018-10-01T02:27:11.462Z,52.47
2018-10-01T02:28:11.452Z,52.49
2018-10-01T02:29:11.506Z,52.49
2018-10-01T02:30:11.430Z,52.49
2018-10-01T02:31:11.424Z,52.39
2018-10-01T02:32:11.407Z,52.29
2018-10-01T02:33:11.396Z,52.27
2018-10-01T02:34:11.408Z,52.39
2018-10-01T02:35:11.373Z,52.39
2018-10-01T02:36:11.372Z,52.47
2018-10-01T02:37:11.385Z,52.57
2018-10-01T02:38:11.345Z,52.27
2018-10-01T02:39:11.330Z,52.57
2018-10-01T02:40:11.318Z,52.39
2018-10-01T02:41:11.307Z,52.49
2018-10-01T02:42:11.336Z,52.57
2018-10-01T02:43:11.284Z,52.27
2018-10-01T02:44:11.275Z,52.37
2018-10-01T02:45:11.323Z,52.67
2018-10-01T02:46:11.299Z,52.57
2018-10-01T02:47:11.271Z,52.37
2018-10-01T02:48:11.231Z,52.47
2018-10-01T02:49:11.222Z,52.29
2018-10-01T02:50:11.205Z,52.47
2018-10-01T02:51:11.222Z,52.57
2018-10-01T02:52:11.185Z,52.29
2018-10-01T02:53:11.204Z,52.57
2018-10-01T02:54:11.160Z,52.59
2018-10-01T02:55:11.153Z,52.27
2018-10-01T02:56:11.139Z,52.39
2018-10-01T02:57:11.128Z,52.47
2018-10-01T02:58:11.153Z,52.29
2018-10-01T02:59:11.104Z,52.27
2018-10-01T03:00:11.097Z,52.27
2018-10-01T03:01:11.082Z,52.37
2018-10-01T03:02:11.078Z,52.49
2018-10-01T03:03:11.173Z,52.37
2018-10-01T03:04:11.068Z,52.57
2018-10-01T03:05:11.051Z,52.87
2018-10-01T03:06:11.029Z,52.37
2018-10-01T03:07:11.038Z,52.49
2018-10-01T03:08:11.003Z,52.47
2018-10-01T03:09:10.993Z,52.27
2018-10-01T03:10:11.009Z,52.47
2018-10-01T03:11:11.024Z,52.59
2018-10-01T03:12:11.025Z,52.57
2018-10-01T03:13:10.948Z,52.57
2018-10-01T03:14:10.964Z,52.29
2018-10-01T03:15:10.940Z,52.37
2018-10-01T03:16:10.923Z,53.17
2018-10-01T03:17:10.906Z,52.57
2018-10-01T03:18:10.970Z,52.27
2018-10-01T03:19:10.883Z,53.19
2018-10-01T03:20:10.901Z,52.47
2018-10-01T03:21:10.866Z,52.27
2018-10-01T03:22:10.860Z,52.49
2018-10-01T03:23:10.835Z,52.57
2018-10-01T03:24:10.826Z,52.49
2018-10-01T03:25:10.837Z,52.49
2018-10-01T03:26:10.802Z,53.09
2018-10-01T03:27:10.810Z,53.07
2018-10-01T03:28:10.884Z,52.27
2018-10-01T03:29:10.785Z,52.39
2018-10-01T03:30:10.779Z,52.27
2018-10-01T03:31:10.746Z,52.37
2018-10-01T03:32:10.751Z,52.17
2018-10-01T03:33:10.770Z,52.89
2018-10-01T03:34:10.722Z,52.69
2018-10-01T03:35:10.703Z,52.27
2018-10-01T03:36:10.694Z,53.07
2018-10-01T03:37:10.679Z,52.47
2018-10-01T03:38:10.691Z,52.47
2018-10-01T03:39:10.680Z,52.29
2018-10-01T03:40:10.685Z,53.17
2018-10-01T03:41:10.676Z,53.19
2018-10-01T03:42:10.661Z,52.27
2018-10-01T03:43:10.613Z,52.49
2018-10-01T03:44:10.626Z,52.47
2018-10-01T03:45:10.590Z,52.49
2018-10-01T03:46:10.579Z,52.29
2018-10-01T03:47:10.576Z,53.19
2018-10-01T03:48:10.556Z,52.67
2018-10-01T03:49:10.569Z,52.27
2018-10-01T03:50:10.534Z,52.67
2018-10-01T03:51:10.522Z,52.80
2018-10-01T03:52:10.527Z,52.39
2018-10-01T03:53:10.540Z,52.69
2018-10-01T03:54:10.489Z,52.69
2018-10-01T03:55:10.479Z,52.29
2018-10-01T03:56:10.490Z,52.69
2018-10-01T03:57:10.455Z,52.77
2018-10-01T03:58:10.446Z,53.09
2018-10-01T03:59:10.433Z,52.67
2018-10-01T04:00:10.423Z,52.67
2018-10-01T04:01:10.434Z,52.69
2018-10-01T04:02:10.398Z,53.09
2018-10-01T04:03:10.475Z,52.80
2018-10-01T04:04:10.379Z,52.87
2018-10-01T04:05:10.367Z,52.67
2018-10-01T04:06:10.425Z,52.89
2018-10-01T04:07:10.343Z,52.80
2018-10-01T04:08:10.331Z,52.87
2018-10-01T04:09:10.334Z,52.80
2018-10-01T04:10:10.314Z,52.47
2018-10-01T04:11:10.322Z,52.67
2018-10-01T04:12:10.288Z,52.80
2018-10-01T04:13:10.275Z,52.89
2018-10-01T04:14:10.265Z,52.69
2018-10-01T04:15:10.253Z,52.80
2018-10-01T04:16:10.347Z,52.80
2018-10-01T04:17:10.231Z,52.80
2018-10-01T04:18:10.220Z,52.67
2018-10-01T04:19:10.224Z,52.87
2018-10-01T04:20:10.199Z,52.87
2018-10-01T04:21:10.235Z,53.00
2018-10-01T04:22:10.175Z,52.89
2018-10-01T04:23:10.176Z,52.67
2018-10-01T04:24:10.157Z,52.89
2018-10-01T04:25:10.144Z,52.87
2018-10-01T04:26:10.170Z,52.89
2018-10-01T04:27:10.119Z,52.87
2018-10-01T04:28:10.112Z,52.89
2018-10-01T04:29:10.097Z,53.09
2018-10-01T04:30:10.111Z,53.19
2018-10-01T04:31:10.116Z,53.07
2018-10-01T04:32:10.066Z,53.09
2018-10-01T04:33:10.051Z,52.89
2018-10-01T04:34:10.040Z,53.00
2018-10-01T04:35:10.029Z,53.07
2018-10-01T04:36:10.042Z,52.87
2018-10-01T04:37:10.007Z,52.89
2018-10-01T04:38:09.996Z,52.67
2018-10-01T04:39:09.984Z,53.09
2018-10-01T04:40:09.973Z,53.09
2018-10-01T04:41:09.986Z,52.89
2018-10-01T04:42:09.975Z,52.97
2018-10-01T04:43:09.940Z,52.89
2018-10-01T04:44:09.938Z,52.80
2018-10-01T04:45:09.919Z,52.89
2018-10-01T04:46:09.930Z,53.00
2018-10-01T04:47:09.896Z,52.87
2018-10-01T04:48:09.886Z,52.89
2018-10-01T04:49:09.873Z,52.89
2018-10-01T04:50:09.862Z,53.09
2018-10-01T04:51:09.886Z,52.89
2018-10-01T04:52:09.839Z,52.89
2018-10-01T04:53:09.855Z,53.00
2018-10-01T04:54:09.816Z,52.89
2018-10-01T04:55:09.805Z,52.89
2018-10-01T04:56:09.797Z,52.89
2018-10-01T04:57:09.785Z,52.89
2018-10-01T04:58:09.847Z,52.87
2018-10-01T04:59:09.765Z,52.87
2018-10-01T05:00:09.750Z,52.89
2018-10-01T05:01:09.762Z,52.97
2018-10-01T05:02:09.727Z,52.89
2018-10-01T05:03:09.757Z,52.89
2018-10-01T05:04:09.704Z,53.09
2018-10-01T05:05:09.695Z,52.80
2018-10-01T05:06:09.716Z,53.09
2018-10-01T05:07:09.672Z,52.87
2018-10-01T05:08:09.759Z,52.80
2018-10-01T05:09:09.650Z,52.89
2018-10-01T05:10:09.655Z,52.89
2018-10-01T05:11:09.626Z,52.89
2018-10-01T05:12:09.619Z,52.97
2018-10-01T05:13:09.627Z,52.80
2018-10-01T05:14:09.617Z,52.80
2018-10-01T05:15:09.583Z,53.19
2018-10-01T05:16:09.572Z,52.80
2018-10-01T05:17:09.560Z,52.89
2018-10-01T05:18:09.548Z,52.87
2018-10-01T05:19:09.584Z,53.09
2018-10-01T05:20:09.552Z,52.89
2018-10-01T05:21:09.525Z,52.89
2018-10-01T05:22:09.505Z,53.09
2018-10-01T05:23:09.492Z,53.07
2018-10-01T05:24:09.480Z,52.69
2018-10-01T05:25:09.843Z,53.09
2018-10-01T05:26:09.460Z,53.09
2018-10-01T05:27:09.502Z,53.09
2018-10-01T05:28:09.437Z,52.89
2018-10-01T05:29:09.425Z,52.89
2018-10-01T05:30:09.437Z,52.89
2018-10-01T05:31:09.405Z,52.89
2018-10-01T05:32:09.391Z,52.89
2018-10-01T05:33:09.380Z,52.80
2018-10-01T05:34:09.393Z,52.89
2018-10-01T05:35:09.370Z,53.00
2018-10-01T05:36:09.347Z,52.89
2018-10-01T05:37:09.362Z,52.89
2018-10-01T05:38:09.324Z,52.80
2018-10-01T05:39:09.313Z,53.09
2018-10-01T05:40:09.302Z,53.00
2018-10-01T05:41:09.290Z,52.89
2018-10-01T05:42:09.306Z,53.07
2018-10-01T05:43:09.272Z,53.00
2018-10-01T05:44:09.257Z,52.87
2018-10-01T05:45:09.247Z,53.09
2018-10-01T05:46:09.236Z,52.89
2018-10-01T05:47:09.247Z,52.89
2018-10-01T05:48:09.212Z,53.00
2018-10-01T05:49:09.231Z,53.00
2018-10-01T05:50:09.189Z,52.89
2018-10-01T05:51:09.178Z,52.89
2018-10-01T05:52:09.213Z,52.80
2018-10-01T05:53:09.157Z,53.00
2018-10-01T05:54:09.176Z,53.00
2018-10-01T05:55:09.136Z,52.87
2018-10-01T05:56:09.150Z,53.00
2018-10-01T05:57:09.111Z,53.07
2018-10-01T05:58:09.188Z,52.89
2018-10-01T05:59:09.113Z,52.97
2018-10-01T06:00:09.101Z,53.00
2018-10-01T06:01:09.067Z,53.00
2018-10-01T06:02:09.055Z,52.87
2018-10-01T06:03:09.083Z,52.89
2018-10-01T06:04:09.033Z,52.87
2018-10-01T06:05:09.050Z,52.87
2018-10-01T06:06:09.009Z,52.80
2018-10-01T06:07:08.999Z,53.09
2018-10-01T06:08:09.012Z,52.77
2018-10-01T06:09:08.976Z,52.69
2018-10-01T06:10:08.965Z,53.09
2018-10-01T06:11:08.958Z,52.80
2018-10-01T06:12:08.943Z,52.89
2018-10-01T06:13:08.966Z,52.39
2018-10-01T06:14:08.923Z,52.69
2018-10-01T06:15:08.910Z,52.87
2018-10-01T06:16:08.900Z,53.19
2018-10-01T06:17:08.888Z,52.69
2018-10-01T06:18:08.937Z,52.39
2018-10-01T06:19:08.865Z,52.69
2018-10-01T06:20:08.879Z,52.69
2018-10-01T06:21:08.842Z,52.87
2018-10-01T06:22:08.841Z,53.19
2018-10-01T06:23:09.636Z,53.19
2018-10-01T06:24:08.833Z,52.49
2018-10-01T06:25:08.812Z,52.59
2018-10-01T06:26:08.788Z,52.39
2018-10-01T06:27:08.822Z,52.49
2018-10-01T06:28:08.876Z,52.59
2018-10-01T06:29:08.753Z,52.39
2018-10-01T06:30:08.742Z,52.57
2018-10-01T06:31:08.730Z,52.59
2018-10-01T06:32:08.720Z,52.59
2018-10-01T06:33:08.746Z,52.47
2018-10-01T06:34:08.697Z,52.59
2018-10-01T06:35:08.686Z,52.59
2018-10-01T06:36:08.743Z,52.49
2018-10-01T06:37:08.663Z,52.29
2018-10-01T06:38:08.712Z,52.39
2018-10-01T06:39:08.644Z,52.39
2018-10-01T06:40:08.629Z,52.29
2018-10-01T06:41:08.664Z,52.29
2018-10-01T06:42:08.696Z,52.29
2018-10-01T06:43:08.602Z,52.49
2018-10-01T06:44:08.586Z,51.29
2018-10-01T06:45:08.572Z,51.69
2018-10-01T06:46:08.671Z,51.67
2018-10-01T06:47:08.569Z,51.49
2018-10-01T06:48:08.542Z,51.67
2018-10-01T06:49:08.528Z,51.67
2018-10-01T06:50:08.577Z,51.57
2018-10-01T06:51:08.562Z,51.69
2018-10-01T06:52:08.503Z,51.57
2018-10-01T06:53:08.484Z,51.77
2018-10-01T06:54:08.474Z,51.77
2018-10-01T06:55:08.560Z,51.57
2018-10-01T06:56:08.451Z,51.87
2018-10-01T06:57:08.440Z,51.97
2018-10-01T06:58:08.432Z,52.17
2018-10-01T06:59:08.429Z,52.27
2018-10-01T07:00:08.443Z,51.87
2018-10-01T07:01:08.478Z,51.77
2018-10-01T07:02:08.383Z,51.87
2018-10-01T07:03:08.372Z,51.77
2018-10-01T07:04:08.361Z,52.04
2018-10-01T07:05:08.403Z,52.04
2018-10-01T07:06:08.338Z,51.84
2018-10-01T07:07:08.338Z,51.74
2018-10-01T07:08:08.320Z,51.77
2018-10-01T07:09:08.308Z,51.97
2018-10-01T07:10:08.380Z,51.84
2018-10-01T07:11:08.334Z,51.94
2018-10-01T07:12:08.295Z,51.84
2018-10-01T07:13:08.274Z,51.84
2018-10-01T07:14:08.250Z,51.74
2018-10-01T07:15:08.260Z,51.74
2018-10-01T07:16:08.229Z,51.74
2018-10-01T07:17:08.408Z,51.74
2018-10-01T07:18:08.227Z,51.84
2018-10-01T07:19:08.194Z,51.84
2018-10-01T07:20:08.184Z,51.74
2018-10-01T07:21:08.278Z,51.84
2018-10-01T07:22:08.167Z,52.04
2018-10-01T07:23:08.273Z,51.94
2018-10-01T07:24:08.141Z,51.84
2018-10-01T07:25:08.130Z,51.54
2018-10-01T07:26:08.166Z,51.82
2018-10-01T07:27:08.108Z,51.52
2018-10-01T07:28:08.108Z,51.32
2018-10-01T07:29:08.084Z,51.32
2018-10-01T07:30:08.086Z,51.02
2018-10-01T07:31:08.085Z,51.02
2018-10-01T07:32:08.070Z,51.22
2018-10-01T07:33:08.042Z,51.22
2018-10-01T07:34:08.056Z,51.02
2018-10-01T07:35:08.018Z,51.29
2018-10-01T07:36:08.062Z,51.20
2018-10-01T07:37:07.994Z,51.22
2018-10-01T07:38:07.982Z,51.32
2018-10-01T07:39:08.121Z,51.20
2018-10-01T07:40:08.017Z,51.29
2018-10-01T07:41:07.975Z,51.29
2018-10-01T07:42:07.938Z,51.29
2018-10-01T07:43:07.957Z,51.29
2018-10-01T07:44:07.941Z,51.50
2018-10-01T07:45:08.037Z,51.50
2018-10-01T07:46:07.955Z,51.50
2018-10-01T07:47:07.885Z,51.50
2018-10-01T07:48:07.901Z,51.20
2018-10-01T07:49:07.863Z,51.20
2018-10-01T07:50:07.848Z,51.39
2018-10-01T07:51:07.969Z,51.50
2018-10-01T07:52:07.840Z,51.50
2018-10-01T07:53:07.999Z,51.20
2018-10-01T07:54:07.805Z,51.69
2018-10-01T07:55:07.798Z,51.50
2018-10-01T07:56:07.780Z,51.50
2018-10-01T07:57:07.836Z,50.79
2018-10-01T07:58:07.782Z,50.87
2018-10-01T07:59:07.770Z,51.37
2018-10-01T08:00:07.944Z,51.37
2018-10-01T08:01:07.731Z,51.37
2018-10-01T08:02:07.759Z,51.27
2018-10-01T08:03:07.702Z,51.17
2018-10-01T08:04:07.716Z,50.97
2018-10-01T08:05:07.680Z,50.77
2018-10-01T08:06:07.668Z,50.77
2018-10-01T08:07:07.659Z,50.97
2018-10-01T08:08:07.676Z,51.27
2018-10-01T08:09:07.699Z,50.97
2018-10-01T08:10:07.649Z,50.77
2018-10-01T08:11:07.616Z,50.57
2018-10-01T08:12:07.601Z,51.47
2018-10-01T08:13:07.621Z,50.57
2018-10-01T08:14:07.629Z,51.27
2018-10-01T08:15:07.567Z,50.77
2018-10-01T08:16:07.556Z,51.57
2018-10-01T08:17:07.548Z,51.57
2018-10-01T08:18:07.648Z,51.57
2018-10-01T08:19:07.554Z,51.37
2018-10-01T08:20:07.543Z,51.47
2018-10-01T08:21:07.501Z,50.87
2018-10-01T08:22:07.491Z,51.37
2018-10-01T08:23:07.495Z,51.17
2018-10-01T08:24:07.490Z,50.77
2018-10-01T08:25:07.457Z,50.97
2018-10-01T08:26:07.548Z,50.97
2018-10-01T08:27:07.469Z,50.97
2018-10-01T08:28:07.422Z,50.67
2018-10-01T08:29:07.460Z,50.97
2018-10-01T08:30:07.431Z,50.74
2018-10-01T08:31:07.392Z,50.45
2018-10-01T08:32:07.406Z,50.65
2018-10-01T08:33:07.368Z,50.84
2018-10-01T08:34:07.406Z,50.74
2018-10-01T08:35:07.437Z,50.74
2018-10-01T08:36:07.336Z,50.65
2018-10-01T08:37:07.369Z,51.04
2018-10-01T08:38:07.328Z,50.95
2018-10-01T08:39:07.300Z,50.95
2018-10-01T08:40:07.288Z,50.97
2018-10-01T08:41:07.417Z,50.95
2018-10-01T08:42:07.267Z,51.04
2018-10-01T08:43:07.254Z,51.04
2018-10-01T08:44:07.302Z,50.97
2018-10-01T08:45:07.232Z,50.95
2018-10-01T08:46:07.262Z,50.95
2018-10-01T08:47:07.315Z,50.95
2018-10-01T08:48:07.203Z,51.04
2018-10-01T08:49:07.188Z,50.95
2018-10-01T08:50:07.217Z,51.15
2018-10-01T08:51:07.208Z,50.95
2018-10-01T08:52:07.287Z,51.04
2018-10-01T08:53:07.188Z,50.74
2018-10-01T08:54:07.133Z,51.04
2018-10-01T08:55:07.137Z,51.04
2018-10-01T08:56:07.125Z,51.17
2018-10-01T08:57:07.406Z,50.77
2018-10-01T08:58:07.091Z,51.07
2018-10-01T08:59:07.114Z,50.77
2018-10-01T09:00:07.064Z,50.77
2018-10-01T09:01:07.106Z,50.87
2018-10-01T09:02:07.168Z,50.97
2018-10-01T09:03:07.032Z,50.97
2018-10-01T09:04:07.213Z,50.77
2018-10-01T09:05:07.082Z,50.47
2018-10-01T09:06:07.004Z,51.04
2018-10-01T09:07:07.043Z,50.87
2018-10-01T09:08:07.058Z,50.84
2018-10-01T09:09:06.966Z,50.95
2018-10-01T09:10:06.957Z,51.07
2018-10-01T09:11:06.974Z,50.87
2018-10-01T09:12:06.977Z,50.87
2018-10-01T09:13:06.923Z,50.97
2018-10-01T09:14:06.980Z,50.77
2018-10-01T09:15:06.957Z,50.84
2018-10-01T09:16:06.886Z,50.65
2018-10-01T09:17:06.895Z,50.84
2018-10-01T09:18:06.873Z,50.84
2018-10-01T09:19:06.854Z,50.84
2018-10-01T09:20:06.929Z,50.84
2018-10-01T09:21:06.859Z,50.97
2018-10-01T09:22:06.829Z,50.74
2018-10-01T09:23:06.859Z,51.04
2018-10-01T09:24:06.927Z,49.85
2018-10-01T09:25:06.812Z,50.54
2018-10-01T09:26:06.818Z,50.74
2018-10-01T09:27:06.763Z,50.54
2018-10-01T09:28:06.751Z,50.52
2018-10-01T09:29:06.861Z,50.65
2018-10-01T09:30:06.793Z,50.84
2018-10-01T09:31:06.796Z,51.04
2018-10-01T09:32:06.753Z,50.84
2018-10-01T09:33:06.699Z,51.15
2018-10-01T09:34:06.724Z,50.84
2018-10-01T09:35:06.733Z,51.15
2018-10-01T09:36:06.666Z,50.84
2018-10-01T09:37:06.652Z,51.07
2018-10-01T09:38:08.158Z,50.74
2018-10-01T09:39:06.793Z,50.74
2018-10-01T09:40:06.640Z,50.84
2018-10-01T09:41:06.606Z,50.95
2018-10-01T09:42:06.656Z,50.74
2018-10-01T09:43:06.585Z,50.54
2018-10-01T09:44:06.614Z,50.74
2018-10-01T09:45:06.565Z,50.54
2018-10-01T09:46:06.618Z,50.35
2018-10-01T09:47:06.543Z,50.65
2018-10-01T09:48:06.538Z,50.84
2018-10-01T09:49:06.518Z,50.84
2018-10-01T09:50:06.548Z,50.84
2018-10-01T09:51:06.501Z,51.04
2018-10-01T09:52:06.524Z,50.45
2018-10-01T09:53:06.474Z,50.74
2018-10-01T09:54:06.460Z,50.84
2018-10-01T09:55:06.806Z,50.57
2018-10-01T09:56:06.508Z,50.95
2018-10-01T09:57:06.472Z,50.95
2018-10-01T09:58:06.544Z,50.84
2018-10-01T09:59:06.429Z,51.25
2018-10-01T10:00:06.438Z,50.45
2018-10-01T10:01:07.179Z,50.74
2018-10-01T10:02:06.434Z,50.35
2018-10-01T10:03:06.364Z,51.04
2018-10-01T10:04:06.432Z,50.45
2018-10-01T10:05:06.340Z,50.95
2018-10-01T10:06:06.475Z,50.24
2018-10-01T10:07:06.326Z,50.45
2018-10-01T10:08:06.354Z,50.54
2018-10-01T10:09:06.294Z,50.45
2018-10-01T10:10:06.337Z,50.54
2018-10-01T10:11:06.294Z,50.45
2018-10-01T10:12:06.288Z,50.35
2018-10-01T10:13:06.252Z,50.74
2018-10-01T10:14:06.302Z,50.65
2018-10-01T10:15:06.226Z,50.74
2018-10-01T10:16:06.235Z,50.54
2018-10-01T10:17:06.316Z,50.45
2018-10-01T10:18:06.201Z,50.65
2018-10-01T10:19:06.181Z,50.35
2018-10-01T10:20:06.188Z,50.65
2018-10-01T10:21:06.191Z,50.35
2018-10-01T10:22:06.176Z,50.45
2018-10-01T10:23:06.137Z,50.35
2018-10-01T10:24:06.355Z,50.84
2018-10-01T10:25:06.114Z,50.35
2018-10-01T10:26:06.223Z,50.45
2018-10-01T10:27:06.136Z,50.54
2018-10-01T10:28:06.087Z,50.54
2018-10-01T10:29:06.351Z,50.45
2018-10-01T10:30:06.060Z,50.57
2018-10-01T10:31:06.072Z,50.65
2018-10-01T10:32:06.085Z,50.54
2018-10-01T10:33:06.058Z,50.24
2018-10-01T10:34:06.069Z,50.54
2018-10-01T10:35:06.003Z,50.54
2018-10-01T10:36:05.990Z,50.35
2018-10-01T10:37:05.980Z,50.54
2018-10-01T10:38:06.031Z,50.45
2018-10-01T10:39:05.958Z,50.74
2018-10-01T10:40:05.949Z,50.84
2018-10-01T10:41:06.038Z,50.35
2018-10-01T10:42:05.961Z,50.54
2018-10-01T10:43:05.913Z,50.45
2018-10-01T10:44:05.962Z,50.45
2018-10-01T10:45:05.899Z,50.35
2018-10-01T10:46:05.878Z,50.74
2018-10-01T10:47:05.893Z,50.45
2018-10-01T10:48:06.015Z,50.24
2018-10-01T10:49:05.965Z,50.84
2018-10-01T10:50:05.880Z,50.74
2018-10-01T10:51:05.826Z,50.74
2018-10-01T10:52:05.812Z,50.72
2018-10-01T10:53:05.823Z,50.45
2018-10-01T10:54:05.789Z,50.22
2018-10-01T10:55:05.801Z,49.65
2018-10-01T10:56:05.839Z,50.32
2018-10-01T10:57:05.931Z,49.82
2018-10-01T10:58:05.759Z,49.72
2018-10-01T10:59:05.735Z,49.72
2018-10-01T11:00:05.750Z,49.62
2018-10-01T11:01:05.711Z,49.52
2018-10-01T11:02:05.759Z,49.62
2018-10-01T11:03:05.690Z,49.82
2018-10-01T11:04:05.702Z,50.22
2018-10-01T11:05:05.666Z,49.70
2018-10-01T11:06:05.686Z,49.90
2018-10-01T11:07:05.669Z,50.30
2018-10-01T11:08:05.719Z,50.00
2018-10-01T11:09:05.637Z,49.90
2018-10-01T11:10:05.679Z,49.50
2018-10-01T11:11:05.635Z,49.80
2018-10-01T11:12:05.588Z,49.80
2018-10-01T11:13:05.576Z,49.80
2018-10-01T11:14:05.689Z,49.60
2018-10-01T11:15:05.742Z,49.68
2018-10-01T11:16:05.579Z,49.90
2018-10-01T11:17:05.580Z,49.70
2018-10-01T11:18:05.547Z,49.70
2018-10-01T11:19:05.781Z,49.68
2018-10-01T11:20:05.624Z,49.90
2018-10-01T11:21:06.788Z,49.70
2018-10-01T11:22:06.067Z,50.40
2018-10-01T11:23:57.545Z,49.98
2018-10-01T11:25:48.869Z,49.38
2018-10-01T11:26:48.186Z,49.38
2018-10-01T11:27:48.130Z,49.57
2018-10-01T11:28:48.057Z,49.38
2018-10-01T11:29:48.247Z,49.38
2018-10-01T11:30:48.032Z,49.48
2018-10-01T11:31:48.141Z,49.38
2018-10-01T11:32:48.017Z,49.27
2018-10-01T11:33:47.989Z,49.57
2018-10-01T11:34:48.051Z,50.27
2018-10-01T11:35:47.961Z,49.68
2018-10-01T11:36:47.972Z,50.07
2018-10-01T11:37:47.937Z,50.27
2018-10-01T11:38:47.927Z,50.07
2018-10-01T11:39:48.074Z,49.90
2018-10-01T11:40:47.904Z,49.90
2018-10-01T11:41:47.892Z,50.20
2018-10-01T11:42:47.885Z,50.00
2018-10-01T11:43:47.873Z,50.07
2018-10-01T11:44:47.884Z,50.07
2018-10-01T11:45:48.205Z,49.57
2018-10-01T11:46:47.864Z,49.48
2018-10-01T11:47:47.850Z,49.48
2018-10-01T11:48:47.815Z,49.38
2018-10-01T11:49:47.805Z,49.38
2018-10-01T11:50:47.863Z,49.18
2018-10-01T11:51:47.976Z,49.18
2018-10-01T11:52:47.803Z,49.57
2018-10-01T11:53:47.759Z,49.57
2018-10-01T11:54:47.783Z,49.15
2018-10-01T11:55:47.739Z,49.48
2018-10-01T11:56:47.757Z,49.18
2018-10-01T11:57:47.841Z,49.48
2018-10-01T11:58:47.707Z,49.18
2018-10-01T11:59:47.717Z,49.38
2018-10-01T12:00:47.686Z,49.48
2018-10-01T12:01:47.671Z,49.38
2018-10-01T12:02:47.659Z,49.68
2018-10-01T12:03:47.730Z,49.38
2018-10-01T12:04:47.661Z,49.38
2018-10-01T12:05:47.658Z,49.48
2018-10-01T12:06:47.615Z,49.18
2018-10-01T12:07:47.603Z,49.18
2018-10-01T12:08:47.592Z,49.20
2018-10-01T12:09:47.662Z,49.18
2018-10-01T12:10:47.602Z,49.27
2018-10-01T12:11:47.558Z,49.38
2018-10-01T12:12:47.567Z,49.38
2018-10-01T12:13:47.536Z,49.18
2018-10-01T12:14:47.524Z,49.18
2018-10-01T12:15:47.714Z,49.38
2018-10-01T12:16:47.515Z,49.68
2018-10-01T12:17:47.495Z,49.77
2018-10-01T12:18:47.480Z,49.57
2018-10-01T12:19:47.469Z,48.97
2018-10-01T12:20:47.489Z,49.48
2018-10-01T12:21:47.623Z,49.48
2018-10-01T12:22:47.437Z,49.38
2018-10-01T12:23:47.450Z,49.35
2018-10-01T12:24:47.414Z,49.38
2018-10-01T12:25:47.429Z,49.68
2018-10-01T12:26:47.391Z,49.87
2018-10-01T12:27:47.381Z,49.75
2018-10-01T12:28:47.368Z,49.68
2018-10-01T12:29:47.357Z,49.68
2018-10-01T12:30:47.372Z,49.57
2018-10-01T12:31:47.363Z,49.57
2018-10-01T12:32:47.348Z,49.87
2018-10-01T12:33:47.484Z,49.57
2018-10-01T12:34:47.352Z,49.68
2018-10-01T12:35:47.290Z,49.68
2018-10-01T12:36:47.279Z,49.87
2018-10-01T12:37:47.307Z,49.18
2018-10-01T12:38:47.274Z,49.57
2018-10-01T12:39:47.325Z,49.18
2018-10-01T12:40:47.269Z,49.38
2018-10-01T12:41:47.223Z,49.18
2018-10-01T12:42:47.481Z,49.57
2018-10-01T12:43:47.209Z,48.75
2018-10-01T12:44:47.191Z,49.48
2018-10-01T12:45:47.179Z,49.48
2018-10-01T12:46:47.179Z,49.68
2018-10-01T12:47:47.206Z,49.57
2018-10-01T12:48:47.145Z,49.98
2018-10-01T12:49:47.165Z,49.77
2018-10-01T12:50:47.123Z,49.57
2018-10-01T12:51:47.158Z,49.48
2018-10-01T12:52:47.134Z,49.48
2018-10-01T12:53:47.089Z,49.48